Time;durP1;ratioP1;P1;durP2;ratioP2;P2;SDS_P1;SDS_P2;PMS_P1;PMS_P2;Temp;Humidity;BMP_temperature;BMP_pressure;BME280_temperature;BME280_humidity;BME280_pressure;Samples;Min_cycle;Max_cycle;Signal;HPM_P1;HPM_P2
2022/08/13 00:02:17;;;;;;;32.08;6.32;;;;;;;;;;4950747;28;20051;-70
2022/08/13 00:04:56;;;;;;;48.97;7.13;;;;;;;;;;4949855;28;20043;-70
2022/08/13 00:07:22;;;;;;;53.45;7.35;;;;;;;;;;4949491;28;20043;-71
2022/08/13 00:09:49;;;;;;;30.17;5.70;;;;;;;;;;4950495;28;20568;-71
2022/08/13 00:15:27;;;;;;;30.15;6.32;;;;;;;;;;4969177;28;20055;-70
2022/08/13 00:17:54;;;;;;;21.13;5.80;;;;;;;;;;4970360;28;20158;-71
2022/08/13 00:20:25;;;;;;;28.98;5.90;;;;;;;;;;4971504;28;20054;-72
2022/08/13 00:22:50;;;;;;;19.63;5.43;;;;;;;;;;4970198;28;20567;-71
2022/08/13 00:25:16;;;;;;;23.48;5.38;;;;;;;;;;4970300;28;20039;-71
2022/08/13 00:27:47;;;;;;;22.27;5.25;;;;;;;;;;4969608;28;20055;-72
2022/08/13 00:30:16;;;;;;;22.98;6.50;;;;;;;;;;4967742;28;20047;-71
2022/08/13 00:32:45;;;;;;;21.38;5.57;;;;;;;;;;4967409;28;20047;-72
2022/08/13 00:35:12;;;;;;;18.63;5.28;;;;;;;;;;4968307;28;20412;-71
2022/08/13 00:37:41;;;;;;;22.08;6.00;;;;;;;;;;4967676;28;20046;-71
2022/08/13 00:40:09;;;;;;;18.27;5.25;;;;;;;;;;4960939;28;20104;-70
2022/08/13 00:42:37;;;;;;;16.40;5.72;;;;;;;;;;4948629;28;20054;-71
2022/08/13 00:45:05;;;;;;;13.88;5.47;;;;;;;;;;4948835;28;20426;-72
2022/08/13 00:50:16;;;;;;;20.77;5.35;;;;;;;;;;4968152;28;20647;-71
2022/08/13 00:52:41;;;;;;;19.33;5.30;;;;;;;;;;4967282;28;20231;-70
2022/08/13 00:55:14;;;;;;;25.40;5.30;;;;;;;;;;4967738;28;20050;-70
2022/08/13 00:57:40;;;;;;;21.90;5.63;;;;;;;;;;4966931;28;20097;-70
2022/08/13 01:00:13;;;;;;;16.77;5.60;;;;;;;;;;4967794;28;20051;-70
2022/08/13 01:02:45;;;;;;;16.80;5.57;;;;;;;;;;4967909;28;20054;-70
2022/08/13 01:05:11;;;;;;;23.25;5.90;;;;;;;;;;4944459;29;20079;-71
2022/08/13 01:07:41;;;;;;;24.42;5.80;;;;;;;;;;4948270;28;20511;-71
2022/08/13 01:10:09;;;;;;;25.60;5.60;;;;;;;;;;4947031;28;20058;-69
2022/08/13 01:12:36;;;;;;;19.05;5.50;;;;;;;;;;4948688;28;20114;-71
2022/08/13 01:15:03;;;;;;;22.05;5.40;;;;;;;;;;4948799;28;20163;-70
2022/08/13 01:17:30;;;;;;;20.33;5.35;;;;;;;;;;4948652;28;20043;-75
2022/08/13 01:19:57;;;;;;;18.38;5.55;;;;;;;;;;4945664;28;20047;-70
2022/08/13 01:22:25;;;;;;;17.40;5.20;;;;;;;;;;4951821;28;20086;-70
2022/08/13 01:24:52;;;;;;;16.27;5.65;;;;;;;;;;4952298;28;20078;-70
2022/08/13 01:27:22;;;;;;;14.43;5.50;;;;;;;;;;4948469;28;20103;-70
2022/08/13 01:29:48;;;;;;;24.90;5.65;;;;;;;;;;4948033;28;20617;-71
2022/08/13 01:32:16;;;;;;;16.08;5.28;;;;;;;;;;4946439;28;20054;-70
2022/08/13 01:34:48;;;;;;;18.55;4.90;;;;;;;;;;4947778;28;20657;-71
2022/08/13 01:37:17;;;;;;;15.27;5.15;;;;;;;;;;4950396;28;20049;-74
2022/08/13 01:39:44;;;;;;;19.58;5.20;;;;;;;;;;4966803;28;20042;-71
2022/08/13 01:42:20;;;;;;;19.88;5.50;;;;;;;;;;4967300;28;20057;-69
2022/08/13 01:44:48;;;;;;;17.00;5.45;;;;;;;;;;4966933;28;20437;-70
2022/08/13 01:52:45;;;;;;;20.17;5.07;;;;;;;;;;4928093;29;20126;-72
2022/08/13 01:55:12;;;;;;;18.70;5.18;;;;;;;;;;4941778;28;20058;-71
2022/08/13 01:57:43;;;;;;;18.77;5.13;;;;;;;;;;4948743;28;20140;-71
2022/08/13 02:00:13;;;;;;;22.10;5.55;;;;;;;;;;4948671;28;20061;-72
2022/08/13 02:02:42;;;;;;;20.27;5.70;;;;;;;;;;4947484;28;20493;-71
2022/08/13 02:05:10;;;;;;;24.75;4.75;;;;;;;;;;4946354;28;20312;-70
2022/08/13 02:07:38;;;;;;;18.02;4.75;;;;;;;;;;4946639;28;20055;-70
2022/08/13 02:10:05;;;;;;;23.80;3.92;;;;;;;;;;4947220;28;20265;-71
2022/08/13 02:12:31;;;;;;;30.45;3.67;;;;;;;;;;4947168;28;20063;-70
2022/08/13 02:14:58;;;;;;;26.17;3.72;;;;;;;;;;4946679;29;20058;-70
2022/08/13 02:17:25;;;;;;;35.08;3.92;;;;;;;;;;4946726;28;20156;-68
2022/08/13 02:19:55;;;;;;;23.75;4.25;;;;;;;;;;4947164;28;20475;-70
2022/08/13 02:22:23;;;;;;;35.60;4.18;;;;;;;;;;4946103;28;20057;-73
2022/08/13 02:24:55;;;;;;;22.00;3.80;;;;;;;;;;4946931;28;20378;-71
2022/08/13 02:27:24;;;;;;;23.17;3.55;;;;;;;;;;4946323;28;20083;-71
2022/08/13 02:29:55;;;;;;;28.80;4.03;;;;;;;;;;4946978;28;20123;-73
2022/08/13 02:32:25;;;;;;;29.05;3.60;;;;;;;;;;4947171;28;20051;-72
2022/08/13 02:34:52;;;;;;;23.63;3.25;;;;;;;;;;4947324;28;20047;-71
2022/08/13 02:37:22;;;;;;;39.28;4.32;;;;;;;;;;4946383;28;20047;-69
2022/08/13 02:39:50;;;;;;;32.83;3.58;;;;;;;;;;4948656;28;20046;-71
2022/08/13 02:42:16;;;;;;;24.33;3.40;;;;;;;;;;4947774;28;20059;-69
2022/08/13 02:44:44;;;;;;;28.75;3.75;;;;;;;;;;4947094;28;20660;-72
2022/08/13 02:47:12;;;;;;;32.25;3.88;;;;;;;;;;4947487;28;20130;-71
2022/08/13 02:49:40;;;;;;;24.35;3.75;;;;;;;;;;4947088;28;20285;-71
2022/08/13 02:52:09;;;;;;;41.78;4.35;;;;;;;;;;4947070;28;20051;-70
2022/08/13 02:54:42;;;;;;;34.65;4.45;;;;;;;;;;4948251;28;20458;-70
2022/08/13 02:57:09;;;;;;;;;;;;;;;;;;4948521;28;20094;-72
2022/08/13 02:59:35;;;;;;;34.10;3.97;;;;;;;;;;4947494;28;19922;-70
2022/08/13 03:02:04;;;;;;;37.28;4.45;;;;;;;;;;4942499;28;20089;-70
2022/08/13 03:04:30;;;;;;;38.17;4.40;;;;;;;;;;4945290;28;20058;-71
2022/08/13 03:06:57;;;;;;;31.10;5.20;;;;;;;;;;4945738;28;20043;-71
2022/08/13 03:09:23;;;;;;;27.55;4.57;;;;;;;;;;4945669;29;20603;-71
2022/08/13 03:11:50;;;;;;;35.00;5.10;;;;;;;;;;4945870;28;20067;-71
2022/08/13 03:14:19;;;;;;;31.23;5.07;;;;;;;;;;4945742;28;20067;-72
2022/08/13 03:16:45;;;;;;;30.83;5.00;;;;;;;;;;4947262;28;20070;-69
2022/08/13 03:19:11;;;;;;;33.05;5.63;;;;;;;;;;4952887;28;20049;-71
2022/08/13 03:21:42;;;;;;;31.08;4.80;;;;;;;;;;4950542;28;20580;-71
2022/08/13 03:24:17;;;;;;;33.53;5.22;;;;;;;;;;4950217;28;20388;-71
2022/08/13 03:26:44;;;;;;;31.75;5.38;;;;;;;;;;4949631;28;20059;-70
2022/08/13 03:29:10;;;;;;;34.28;6.03;;;;;;;;;;4946374;28;20112;-70
2022/08/13 03:31:37;;;;;;;28.73;5.25;;;;;;;;;;4933526;29;20058;-72
2022/08/13 03:34:04;;;;;;;33.72;5.63;;;;;;;;;;4933137;29;20091;-70
2022/08/13 03:36:32;;;;;;;39.53;5.50;;;;;;;;;;4940397;28;20051;-70
2022/08/13 03:38:59;;;;;;;36.13;5.50;;;;;;;;;;4952692;28;20047;-69
2022/08/13 03:41:26;;;;;;;34.63;5.45;;;;;;;;;;4951309;28;20051;-70
2022/08/13 03:43:53;;;;;;;35.22;5.63;;;;;;;;;;4949742;28;20055;-71
2022/08/13 03:46:22;;;;;;;28.80;5.40;;;;;;;;;;4950021;28;20074;-69
2022/08/13 03:48:50;;;;;;;41.10;6.45;;;;;;;;;;4949450;28;20386;-71
2022/08/13 03:51:22;;;;;;;29.40;5.40;;;;;;;;;;4949846;28;20047;-71
2022/08/13 03:53:53;;;;;;;35.90;5.90;;;;;;;;;;4951676;28;20046;-71
2022/08/13 03:56:24;;;;;;;32.92;5.82;;;;;;;;;;4951395;28;20051;-72
2022/08/13 03:58:50;;;;;;;31.50;5.90;;;;;;;;;;4949602;28;20051;-69
2022/08/13 04:01:17;;;;;;;34.03;5.97;;;;;;;;;;4951784;28;20174;-71
2022/08/13 04:03:44;;;;;;;50.85;6.07;;;;;;;;;;4948432;29;20047;-70
2022/08/13 04:06:15;;;;;;;31.80;5.75;;;;;;;;;;4949516;28;20048;-70
2022/08/13 04:08:42;;;;;;;22.15;5.03;;;;;;;;;;4952489;28;20052;-70
2022/08/13 04:11:13;;;;;;;34.47;5.88;;;;;;;;;;4963292;28;20054;-72
2022/08/13 04:13:40;;;;;;;26.83;5.40;;;;;;;;;;4970629;28;20047;-71
2022/08/13 04:16:12;;;;;;;30.35;5.75;;;;;;;;;;4970434;28;20047;-71
2022/08/13 04:18:39;;;;;;;22.15;5.40;;;;;;;;;;4961477;28;20056;-72
2022/08/13 04:21:08;;;;;;;26.10;5.78;;;;;;;;;;4930422;29;20075;-70
2022/08/13 04:23:39;;;;;;;29.27;5.38;;;;;;;;;;4930112;29;20043;-71
2022/08/13 04:26:08;;;;;;;35.35;5.57;;;;;;;;;;4929307;29;20552;-70
2022/08/13 04:28:35;;;;;;;32.08;5.70;;;;;;;;;;4944572;28;20523;-73
2022/08/13 04:31:00;;;;;;;37.05;5.82;;;;;;;;;;4948885;28;20043;-72
2022/08/13 04:33:27;;;;;;;31.23;5.53;;;;;;;;;;4948552;28;20592;-69
2022/08/13 04:35:54;;;;;;;32.38;5.72;;;;;;;;;;4948019;28;20105;-70
2022/08/13 04:38:20;;;;;;;30.48;6.50;;;;;;;;;;4948060;28;20094;-70
2022/08/13 04:40:46;;;;;;;35.60;5.93;;;;;;;;;;4948574;28;20055;-71
2022/08/13 04:43:13;;;;;;;30.00;6.05;;;;;;;;;;4948858;28;20050;-70
2022/08/13 04:45:40;;;;;;;41.15;5.63;;;;;;;;;;4949048;28;20088;-71
2022/08/13 04:48:12;;;;;;;30.08;5.43;;;;;;;;;;4948868;28;20044;-74
2022/08/13 04:50:40;;;;;;;32.40;5.75;;;;;;;;;;4948681;28;20512;-70
2022/08/13 04:53:08;;;;;;;34.55;6.50;;;;;;;;;;4948312;28;20066;-71
2022/08/13 04:55:36;;;;;;;33.72;5.65;;;;;;;;;;4948588;28;20055;-71
2022/08/13 04:58:03;;;;;;;41.90;6.15;;;;;;;;;;4949636;28;20173;-73
2022/08/13 05:00:32;;;;;;;34.55;6.10;;;;;;;;;;4950326;28;20043;-72
2022/08/13 05:03:16;;;;;;;28.58;5.80;;;;;;;;;;4949985;28;20063;-71
2022/08/13 05:05:44;;;;;;;36.25;5.85;;;;;;;;;;4949099;28;20081;-72
2022/08/13 05:08:11;;;;;;;44.72;6.32;;;;;;;;;;4940055;29;20060;-71
2022/08/13 05:10:42;;;;;;;29.08;5.68;;;;;;;;;;4929067;29;20040;-72
2022/08/13 05:13:29;;;;;;;32.38;5.07;;;;;;;;;;4929501;29;20222;-71
2022/08/13 05:15:58;;;;;;;33.10;5.47;;;;;;;;;;4928837;29;20051;-70
2022/08/13 05:18:26;;;;;;;29.90;5.40;;;;;;;;;;4936295;28;20074;-71
2022/08/13 05:20:55;;;;;;;33.50;6.18;;;;;;;;;;4947931;28;20155;-71
2022/08/13 05:23:22;;;;;;;31.80;5.60;;;;;;;;;;4946972;28;20344;-70
2022/08/13 05:25:49;;;;;;;32.58;6.25;;;;;;;;;;4945874;29;20044;-69
2022/08/13 05:28:17;;;;;;;39.58;6.03;;;;;;;;;;4947928;29;20051;-71
2022/08/13 05:30:46;;;;;;;43.17;6.38;;;;;;;;;;4948985;28;20048;-70
2022/08/13 05:33:18;;;;;;;40.45;6.32;;;;;;;;;;4948095;28;20048;-70
2022/08/13 05:35:46;;;;;;;32.97;5.97;;;;;;;;;;4947598;28;20070;-70
2022/08/13 05:38:12;;;;;;;40.38;6.30;;;;;;;;;;4947696;28;20047;-70
2022/08/13 05:40:38;;;;;;;51.55;7.05;;;;;;;;;;4947891;28;20058;-70
2022/08/13 05:43:13;;;;;;;34.15;6.28;;;;;;;;;;4945974;28;20065;-73
2022/08/13 05:45:41;;;;;;;47.45;6.90;;;;;;;;;;4947492;28;20054;-73
2022/08/13 05:48:09;;;;;;;37.55;6.45;;;;;;;;;;4947594;28;20047;-71
2022/08/13 05:50:35;;;;;;;39.40;5.65;;;;;;;;;;4948663;28;20116;-72
2022/08/13 05:53:11;;;;;;;55.88;7.38;;;;;;;;;;4950347;28;20711;-71
2022/08/13 05:55:38;;;;;;;41.25;5.78;;;;;;;;;;4950866;28;20114;-69
2022/08/13 05:58:06;;;;;;;41.13;6.25;;;;;;;;;;4949227;28;20047;-70
2022/08/13 06:03:31;;;;;;;40.22;6.65;;;;;;;;;;4948960;29;20401;-69
2022/08/13 06:06:01;;;;;;;38.42;5.80;;;;;;;;;;4946606;29;20773;-70
2022/08/13 06:08:29;;;;;;;48.95;6.80;;;;;;;;;;4947769;28;20054;-71
2022/08/13 06:11:04;;;;;;;24.50;6.30;;;;;;;;;;4965812;28;20136;-73
2022/08/13 06:13:31;;;;;;;68.47;6.80;;;;;;;;;;4966387;28;20078;-73
2022/08/13 06:15:58;;;;;;;95.28;7.88;;;;;;;;;;4967100;28;20109;-71
2022/08/13 06:18:29;;;;;;;97.32;8.32;;;;;;;;;;4966971;28;20067;-72
2022/08/13 06:20:57;;;;;;;92.20;8.23;;;;;;;;;;4965736;28;20467;-73
2022/08/13 06:23:24;;;;;;;97.10;7.25;;;;;;;;;;4966703;28;20074;-71
2022/08/13 06:25:54;;;;;;;58.28;5.88;;;;;;;;;;4967100;28;20094;-70
2022/08/13 06:28:22;;;;;;;69.00;5.90;;;;;;;;;;4968171;28;20050;-73
2022/08/13 06:30:53;;;;;;;76.63;6.45;;;;;;;;;;4951365;28;20054;-71
2022/08/13 06:33:23;;;;;;;64.47;6.65;;;;;;;;;;4948358;28;20055;-71
2022/08/13 06:36:01;;;;;;;158.50;11.00;;;;;;;;;;4948314;28;20043;-71
2022/08/13 06:38:33;;;;;;;168.77;12.68;;;;;;;;;;4946515;28;20106;-72
2022/08/13 06:41:00;;;;;;;163.63;11.85;;;;;;;;;;4947274;28;20043;-72
2022/08/13 06:43:32;;;;;;;160.43;10.70;;;;;;;;;;4952229;28;20059;-73
2022/08/13 06:45:59;;;;;;;173.88;11.10;;;;;;;;;;4945449;28;20039;-73
2022/08/13 06:48:29;;;;;;;169.68;12.00;;;;;;;;;;4939063;29;20066;-71
2022/08/13 06:50:55;;;;;;;102.88;9.27;;;;;;;;;;4946994;28;20062;-70
2022/08/13 06:53:22;;;;;;;99.65;8.30;;;;;;;;;;4950576;28;20054;-72
2022/08/13 06:55:50;;;;;;;111.93;8.73;;;;;;;;;;4952956;28;20103;-72
2022/08/13 06:58:22;;;;;;;132.23;8.73;;;;;;;;;;4951687;28;20046;-72
2022/08/13 07:00:49;;;;;;;90.05;8.48;;;;;;;;;;4950459;28;20512;-73
2022/08/13 07:03:17;;;;;;;78.07;7.80;;;;;;;;;;4950362;28;20047;-71
2022/08/13 07:05:44;;;;;;;59.50;6.80;;;;;;;;;;4931305;29;20099;-72
2022/08/13 07:08:11;;;;;;;48.92;6.93;;;;;;;;;;4931182;29;20051;-73
2022/08/13 07:10:51;;;;;;;66.57;6.25;;;;;;;;;;4950625;28;20055;-73
2022/08/13 07:13:17;;;;;;;60.35;6.43;;;;;;;;;;4950569;28;20513;-71
2022/08/13 07:15:45;;;;;;;58.42;6.95;;;;;;;;;;4950380;28;20379;-74
2022/08/13 07:18:11;;;;;;;69.65;6.03;;;;;;;;;;4964245;28;20058;-72
2022/08/13 07:20:37;;;;;;;44.58;6.90;;;;;;;;;;4970693;28;20043;-71
2022/08/13 07:23:03;;;;;;;37.35;5.93;;;;;;;;;;4970068;28;20105;-72
2022/08/13 07:25:32;;;;;;;44.72;5.55;;;;;;;;;;4969388;28;20208;-74
2022/08/13 07:27:59;;;;;;;37.53;5.57;;;;;;;;;;4968846;28;20042;-73
2022/08/13 07:30:25;;;;;;;43.10;6.00;;;;;;;;;;4970866;28;20054;-72
2022/08/13 07:32:52;;;;;;;43.72;5.55;;;;;;;;;;4971670;28;20039;-72
2022/08/13 07:35:18;;;;;;;56.42;5.90;;;;;;;;;;4964600;28;20046;-72
2022/08/13 07:37:45;;;;;;;44.63;6.03;;;;;;;;;;4945935;29;20485;-74
2022/08/13 07:40:11;;;;;;;55.95;5.43;;;;;;;;;;4949261;28;20169;-71
2022/08/13 07:42:42;;;;;;;51.60;5.85;;;;;;;;;;4950622;28;20066;-72
2022/08/13 07:45:10;;;;;;;45.40;5.65;;;;;;;;;;4950191;28;20140;-72
2022/08/13 07:47:39;;;;;;;43.45;5.75;;;;;;;;;;4950231;28;20081;-72
2022/08/13 07:50:10;;;;;;;37.25;4.80;;;;;;;;;;4949961;28;20039;-72
2022/08/13 07:52:38;;;;;;;44.45;4.75;;;;;;;;;;4964652;28;20058;-73
2022/08/13 07:55:07;;;;;;;33.50;4.47;;;;;;;;;;4969347;28;20054;-75
2022/08/13 07:57:35;;;;;;;35.78;4.10;;;;;;;;;;4968045;28;20051;-72
2022/08/13 08:00:06;;;;;;;32.65;4.15;;;;;;;;;;4950601;28;20510;-73
2022/08/13 08:02:32;;;;;;;45.42;4.38;;;;;;;;;;4948714;28;20269;-73
2022/08/13 08:04:58;;;;;;;38.25;4.15;;;;;;;;;;4949012;28;20213;-72
2022/08/13 08:07:27;;;;;;;21.05;4.32;;;;;;;;;;4948339;28;20047;-73
2022/08/13 08:09:54;;;;;;;27.27;4.07;;;;;;;;;;4950524;28;20063;-72
2022/08/13 08:12:37;;;;;;;29.63;3.53;;;;;;;;;;4950909;28;20070;-74
2022/08/13 08:15:08;;;;;;;24.73;3.67;;;;;;;;;;4950684;28;20522;-73
2022/08/13 08:17:34;;;;;;;30.48;4.57;;;;;;;;;;4965771;28;20277;-75
2022/08/13 08:20:02;;;;;;;23.95;3.65;;;;;;;;;;4949553;28;20519;-72
2022/08/13 08:22:30;;;;;;;17.55;3.45;;;;;;;;;;4950847;28;20066;-75
2022/08/13 08:24:56;;;;;;;24.73;3.65;;;;;;;;;;4950670;28;20670;-73
2022/08/13 08:27:25;;;;;;;22.85;3.55;;;;;;;;;;4969553;28;20062;-74
2022/08/13 08:29:52;;;;;;;23.30;3.65;;;;;;;;;;4953910;28;20436;-73
2022/08/13 08:32:18;;;;;;;19.00;3.55;;;;;;;;;;4951020;28;20047;-73
2022/08/13 08:34:47;;;;;;;23.17;4.00;;;;;;;;;;4952726;28;20532;-73
2022/08/13 08:43:02;;;;;;;25.80;3.67;;;;;;;;;;4950251;28;20493;-74
2022/08/13 08:45:28;;;;;;;21.17;4.05;;;;;;;;;;4950194;28;20131;-75
2022/08/13 08:47:54;;;;;;;22.05;3.75;;;;;;;;;;4949520;28;20142;-74
2022/08/13 08:50:24;;;;;;;22.10;4.05;;;;;;;;;;4949911;28;20055;-73
2022/08/13 08:55:39;;;;;;;23.17;3.50;;;;;;;;;;4949055;29;20083;-71
2022/08/13 08:58:07;;;;;;;19.65;3.65;;;;;;;;;;4949125;28;20118;-75
2022/08/13 09:00:37;;;;;;;17.80;3.90;;;;;;;;;;4962353;28;20047;-73
2022/08/13 09:03:05;;;;;;;26.20;3.80;;;;;;;;;;4967383;28;20118;-73
2022/08/13 09:05:31;;;;;;;18.65;3.58;;;;;;;;;;4968004;28;20127;-72
2022/08/13 09:08:00;;;;;;;18.35;3.53;;;;;;;;;;4967683;28;20043;-74
2022/08/13 09:10:26;;;;;;;20.83;3.65;;;;;;;;;;4968255;28;20540;-73
2022/08/13 09:12:52;;;;;;;19.10;4.18;;;;;;;;;;4968873;28;20150;-73
2022/08/13 09:15:21;;;;;;;21.90;3.88;;;;;;;;;;4946681;28;20047;-73
2022/08/13 09:17:51;;;;;;;19.23;3.75;;;;;;;;;;4964544;28;20045;-74
2022/08/13 09:20:22;;;;;;;25.50;3.88;;;;;;;;;;4970134;28;20043;-74
2022/08/13 09:23:04;;;;;;;21.27;3.63;;;;;;;;;;4968070;28;20051;-73
2022/08/13 09:25:30;;;;;;;18.35;3.65;;;;;;;;;;4967660;28;20055;-75
2022/08/13 09:27:57;;;;;;;30.50;4.18;;;;;;;;;;4968264;28;20567;-72
2022/08/13 09:30:23;;;;;;;21.80;3.80;;;;;;;;;;4966517;28;20153;-71
2022/08/13 09:32:52;;;;;;;17.20;3.17;;;;;;;;;;4968227;28;20784;-72
2022/08/13 09:35:19;;;;;;;19.95;4.30;;;;;;;;;;4948962;28;20103;-72
2022/08/13 09:37:48;;;;;;;21.48;3.40;;;;;;;;;;4947214;28;20209;-75
2022/08/13 09:40:16;;;;;;;23.95;4.10;;;;;;;;;;4948330;28;20047;-73
2022/08/13 09:42:59;;;;;;;17.30;3.50;;;;;;;;;;4947758;28;20051;-73
2022/08/13 09:45:27;;;;;;;19.27;3.72;;;;;;;;;;4948421;28;20043;-74
2022/08/13 09:47:54;;;;;;;23.35;4.05;;;;;;;;;;4947829;28;20043;-71
2022/08/13 09:50:21;;;;;;;25.70;4.30;;;;;;;;;;4952342;28;20098;-71
2022/08/13 09:52:49;;;;;;;23.52;4.05;;;;;;;;;;4966562;28;20047;-73
2022/08/13 09:55:15;;;;;;;22.13;3.90;;;;;;;;;;4966977;28;20054;-73
2022/08/13 09:58:00;;;;;;;31.17;4.10;;;;;;;;;;4967549;28;20134;-73
2022/08/13 10:00:28;;;;;;;25.58;3.83;;;;;;;;;;4967780;28;20074;-72
2022/08/13 10:03:04;;;;;;;17.85;3.65;;;;;;;;;;4967554;28;20109;-74
2022/08/13 10:05:34;;;;;;;18.40;3.85;;;;;;;;;;4931976;28;20048;-73
2022/08/13 10:08:02;;;;;;;15.73;3.75;;;;;;;;;;4950370;28;20043;-72
2022/08/13 10:10:29;;;;;;;24.98;4.10;;;;;;;;;;4966877;28;20047;-72
2022/08/13 10:12:57;;;;;;;28.58;4.47;;;;;;;;;;4966378;28;20539;-72
2022/08/13 10:15:23;;;;;;;23.17;4.32;;;;;;;;;;4966565;28;20051;-73
2022/08/13 10:17:57;;;;;;;28.40;5.55;;;;;;;;;;4967794;28;20112;-74
2022/08/13 10:20:29;;;;;;;34.10;4.70;;;;;;;;;;4967038;28;20631;-73
2022/08/13 10:22:57;;;;;;;20.50;4.47;;;;;;;;;;4966310;28;20318;-71
2022/08/13 10:25:25;;;;;;;23.88;4.97;;;;;;;;;;4953568;28;20075;-73
2022/08/13 10:27:51;;;;;;;28.80;5.25;;;;;;;;;;4948180;28;20055;-76
2022/08/13 10:30:24;;;;;;;25.83;4.90;;;;;;;;;;4949357;28;20063;-73
2022/08/13 10:32:50;;;;;;;28.27;5.43;;;;;;;;;;4949525;28;20047;-73
2022/08/13 10:35:19;;;;;;;34.88;4.63;;;;;;;;;;4930353;29;20059;-72
2022/08/13 10:37:56;;;;;;;28.48;4.90;;;;;;;;;;4928287;29;20048;-75
2022/08/13 10:40:26;;;;;;;37.03;4.70;;;;;;;;;;4930996;29;20055;-74
2022/08/13 10:42:53;;;;;;;25.45;4.63;;;;;;;;;;4962488;28;20416;-72
2022/08/13 10:45:20;;;;;;;32.45;5.30;;;;;;;;;;4966546;28;20054;-74
2022/08/13 10:47:48;;;;;;;39.83;5.47;;;;;;;;;;4966162;28;20047;-74
2022/08/13 10:50:16;;;;;;;27.55;4.88;;;;;;;;;;4966437;28;20741;-73
2022/08/13 10:52:42;;;;;;;28.98;4.65;;;;;;;;;;4966184;28;20100;-71
2022/08/13 10:55:11;;;;;;;32.47;4.70;;;;;;;;;;4935526;28;20130;-76
2022/08/13 10:57:39;;;;;;;37.85;4.88;;;;;;;;;;4942124;29;20082;-73
2022/08/13 11:00:06;;;;;;;64.18;5.82;;;;;;;;;;4948671;28;20031;-72
2022/08/13 11:02:32;;;;;;;89.32;6.22;;;;;;;;;;4947432;28;20141;-73
2022/08/13 11:05:00;;;;;;;63.78;5.28;;;;;;;;;;4947552;28;20055;-75
2022/08/13 11:07:26;;;;;;;116.88;7.93;;;;;;;;;;4946702;28;20409;-75
2022/08/13 11:09:52;;;;;;;82.13;6.63;;;;;;;;;;4947675;28;20050;-74
2022/08/13 11:12:19;;;;;;;92.05;6.55;;;;;;;;;;4947224;28;20106;-74
2022/08/13 11:14:46;;;;;;;58.50;5.40;;;;;;;;;;4947720;28;20055;-74
2022/08/13 11:17:13;;;;;;;62.10;4.95;;;;;;;;;;4928018;29;20044;-73
2022/08/13 11:19:44;;;;;;;75.35;5.97;;;;;;;;;;4928423;29;20056;-74
2022/08/13 11:22:10;;;;;;;109.10;7.10;;;;;;;;;;4956834;28;20149;-73
2022/08/13 11:24:36;;;;;;;97.72;7.53;;;;;;;;;;4943459;28;20059;-74
2022/08/13 11:27:02;;;;;;;122.90;8.55;;;;;;;;;;4946093;29;20082;-74
2022/08/13 11:29:30;;;;;;;69.03;6.75;;;;;;;;;;4946895;29;20110;-75
2022/08/13 11:31:56;;;;;;;46.63;5.07;;;;;;;;;;4949635;28;20082;-74
2022/08/13 11:34:24;;;;;;;60.25;4.85;;;;;;;;;;4967495;28;20043;-76
2022/08/13 11:36:50;;;;;;;29.75;3.72;;;;;;;;;;4954637;28;20333;-73
2022/08/13 11:39:16;;;;;;;24.52;3.50;;;;;;;;;;4951911;28;20063;-77
2022/08/13 11:41:42;;;;;;;52.42;4.85;;;;;;;;;;4950645;28;20157;-75
2022/08/13 11:44:07;;;;;;;38.75;3.85;;;;;;;;;;4937285;28;20056;-75
2022/08/13 11:46:34;;;;;;;50.00;4.88;;;;;;;;;;4931943;29;20258;-74
2022/08/13 11:49:01;;;;;;;37.70;4.80;;;;;;;;;;4950722;28;20051;-76
2022/08/13 11:51:27;;;;;;;34.75;5.00;;;;;;;;;;4950441;28;20278;-77
2022/08/13 11:53:53;;;;;;;37.50;4.20;;;;;;;;;;4950408;28;20125;-74
2022/08/13 11:56:19;;;;;;;31.05;4.53;;;;;;;;;;4951697;28;20142;-75
2022/08/13 11:58:45;;;;;;;31.38;4.57;;;;;;;;;;4952135;28;20047;-72
2022/08/13 12:01:12;;;;;;;37.85;4.07;;;;;;;;;;4951528;28;20519;-74
2022/08/13 12:03:39;;;;;;;31.15;4.88;;;;;;;;;;4951612;28;20051;-75
2022/08/13 12:06:05;;;;;;;31.50;3.88;;;;;;;;;;4951314;28;20047;-76
2022/08/13 12:08:32;;;;;;;27.08;3.97;;;;;;;;;;4950263;28;20055;-73
2022/08/13 12:10:58;;;;;;;22.45;3.78;;;;;;;;;;4950564;28;20047;-74
2022/08/13 12:13:24;;;;;;;32.45;3.70;;;;;;;;;;4951165;28;20059;-74
2022/08/13 12:15:50;;;;;;;28.65;4.55;;;;;;;;;;4952064;28;20205;-73
2022/08/13 12:18:17;;;;;;;30.67;4.40;;;;;;;;;;4951937;28;20139;-75
2022/08/13 12:20:44;;;;;;;30.33;5.35;;;;;;;;;;4950982;28;20110;-74
2022/08/13 12:23:10;;;;;;;27.40;5.03;;;;;;;;;;4950940;28;20090;-73
2022/08/13 12:25:36;;;;;;;19.98;4.05;;;;;;;;;;4952858;28;20385;-75
2022/08/13 12:28:09;;;;;;;28.92;4.68;;;;;;;;;;4953036;28;20386;-73
2022/08/13 12:30:35;;;;;;;23.80;4.20;;;;;;;;;;4951703;29;20413;-74
2022/08/13 12:33:01;;;;;;;25.55;3.78;;;;;;;;;;4945144;28;20583;-74
2022/08/13 12:35:27;;;;;;;20.00;4.30;;;;;;;;;;4933054;29;20055;-75
2022/08/13 12:37:53;;;;;;;19.50;3.78;;;;;;;;;;4931013;29;20059;-74
2022/08/13 12:40:19;;;;;;;15.48;3.35;;;;;;;;;;4936861;28;20065;-74
2022/08/13 12:42:45;;;;;;;21.13;3.80;;;;;;;;;;4949801;28;20561;-74
2022/08/13 12:45:13;;;;;;;25.67;2.78;;;;;;;;;;4952377;28;20098;-73
2022/08/13 12:47:40;;;;;;;32.45;3.78;;;;;;;;;;4954158;28;20046;-76
2022/08/13 12:50:06;;;;;;;43.78;4.40;;;;;;;;;;4952312;28;20039;-75
2022/08/13 12:52:32;;;;;;;32.03;3.83;;;;;;;;;;4951763;28;20113;-73
2022/08/13 12:54:59;;;;;;;24.88;3.78;;;;;;;;;;4951038;28;20122;-75
2022/08/13 12:57:24;;;;;;;20.98;3.08;;;;;;;;;;4954583;28;20201;-74
2022/08/13 12:59:50;;;;;;;23.58;3.20;;;;;;;;;;4969236;28;20493;-74
2022/08/13 13:02:17;;;;;;;21.83;3.53;;;;;;;;;;4969032;28;20045;-76
2022/08/13 13:04:43;;;;;;;24.73;3.13;;;;;;;;;;4971605;28;20110;-74
2022/08/13 13:07:09;;;;;;;18.65;3.22;;;;;;;;;;4973914;28;20047;-74
2022/08/13 13:09:35;;;;;;;19.38;3.28;;;;;;;;;;4974388;28;20054;-75
2022/08/13 13:12:01;;;;;;;19.45;3.42;;;;;;;;;;4972816;28;20421;-74
2022/08/13 13:14:27;;;;;;;24.42;3.40;;;;;;;;;;4973630;28;20491;-73
2022/08/13 13:16:53;;;;;;;17.27;3.17;;;;;;;;;;4965410;28;20135;-74
2022/08/13 13:19:19;;;;;;;22.48;3.55;;;;;;;;;;4933362;29;20043;-75
2022/08/13 13:21:48;;;;;;;19.48;3.13;;;;;;;;;;4934169;29;20468;-75
2022/08/13 13:24:15;;;;;;;15.77;3.20;;;;;;;;;;4950639;28;20162;-75
2022/08/13 13:26:41;;;;;;;12.48;3.03;;;;;;;;;;4950065;28;20043;-74
2022/08/13 13:29:10;;;;;;;19.98;3.30;;;;;;;;;;4948688;29;20040;-75
2022/08/13 13:31:37;;;;;;;13.02;2.47;;;;;;;;;;4951066;28;20067;-76
2022/08/13 13:34:04;;;;;;;15.63;3.10;;;;;;;;;;4951347;28;20047;-75
2022/08/13 13:36:30;;;;;;;17.88;3.08;;;;;;;;;;4949931;28;20047;-73
2022/08/13 13:38:56;;;;;;;13.95;2.50;;;;;;;;;;4950142;28;20117;-74
2022/08/13 13:41:22;;;;;;;12.52;2.70;;;;;;;;;;4949577;28;20074;-76
2022/08/13 13:43:48;;;;;;;12.77;2.83;;;;;;;;;;4949457;28;20055;-74
2022/08/13 13:46:14;;;;;;;14.77;2.53;;;;;;;;;;4949292;28;20138;-75
2022/08/13 13:48:41;;;;;;;14.93;2.58;;;;;;;;;;4957843;28;20383;-74
2022/08/13 13:51:12;;;;;;;19.00;2.78;;;;;;;;;;4968832;28;20058;-74
2022/08/13 13:53:41;;;;;;;13.55;2.78;;;;;;;;;;4968441;28;20078;-76
2022/08/13 13:56:10;;;;;;;13.45;2.40;;;;;;;;;;4969450;28;20156;-74
2022/08/13 13:58:36;;;;;;;12.57;2.58;;;;;;;;;;4968547;28;20125;-73
2022/08/13 14:01:02;;;;;;;15.68;2.80;;;;;;;;;;4968015;28;20596;-74
2022/08/13 14:03:30;;;;;;;14.48;2.35;;;;;;;;;;4966927;28;20043;-75
2022/08/13 14:05:57;;;;;;;17.05;2.80;;;;;;;;;;4966860;28;20047;-75
2022/08/13 14:08:27;;;;;;;15.75;2.85;;;;;;;;;;4968938;28;20039;-75
2022/08/13 14:10:53;;;;;;;14.10;2.50;;;;;;;;;;4970064;28;20504;-74
2022/08/13 14:13:20;;;;;;;14.75;2.67;;;;;;;;;;4936557;28;20130;-74
2022/08/13 14:15:48;;;;;;;15.55;2.67;;;;;;;;;;4934795;29;20119;-74
2022/08/13 14:18:15;;;;;;;17.33;3.03;;;;;;;;;;4949335;28;20523;-75
2022/08/13 14:20:53;;;;;;;15.23;2.65;;;;;;;;;;4947896;28;20501;-75
2022/08/13 14:23:20;;;;;;;15.15;2.53;;;;;;;;;;4960621;28;20055;-75
2022/08/13 14:25:47;;;;;;;19.75;3.22;;;;;;;;;;4966559;28;20496;-74
2022/08/13 14:28:14;;;;;;;14.88;2.50;;;;;;;;;;4967485;28;20046;-76
2022/08/13 14:30:41;;;;;;;15.38;2.65;;;;;;;;;;4967643;28;20055;-76
2022/08/13 14:33:10;;;;;;;15.10;2.72;;;;;;;;;;4967639;28;20039;-76
2022/08/13 14:35:36;;;;;;;10.68;2.40;;;;;;;;;;4967464;28;20053;-75
2022/08/13 14:38:03;;;;;;;11.05;2.30;;;;;;;;;;4966279;28;20429;-75
2022/08/13 14:40:29;;;;;;;11.68;2.30;;;;;;;;;;4966228;28;20061;-75
2022/08/13 14:42:57;;;;;;;10.68;2.20;;;;;;;;;;4966459;28;20047;-74
2022/08/13 14:45:46;;;;;;;8.38;1.83;;;;;;;;;;4966674;28;20046;-75
2022/08/13 14:48:13;;;;;;;12.52;2.20;;;;;;;;;;4967744;28;20097;-77
2022/08/13 14:50:41;;;;;;;8.80;2.03;;;;;;;;;;4967886;28;20129;-76
2022/08/13 14:53:08;;;;;;;11.35;2.10;;;;;;;;;;4971101;28;20073;-76
2022/08/13 14:55:34;;;;;;;9.43;1.50;;;;;;;;;;4967835;28;20043;-76
2022/08/13 14:58:01;;;;;;;10.30;1.77;;;;;;;;;;4967391;28;20047;-77
2022/08/13 15:00:30;;;;;;;9.38;1.60;;;;;;;;;;4967980;28;20047;-77